createdAt,value
2023-05-04T00:02:22.033Z,101608.25
2023-05-04T00:04:48.500Z,101606.09
2023-05-04T00:07:14.946Z,101605.66
2023-05-04T00:09:41.605Z,101597.66
2023-05-04T00:12:08.224Z,101592.66
2023-05-04T00:14:35.079Z,101591.03
2023-05-04T00:17:02.982Z,101590.25
2023-05-04T00:19:29.372Z,101590.88
2023-05-04T00:21:55.910Z,101594.13
2023-05-04T00:24:22.309Z,101593.38
2023-05-04T00:26:48.768Z,101591.81
2023-05-04T00:29:15.164Z,101588.69
2023-05-04T00:31:41.680Z,101586.72
2023-05-04T00:34:08.633Z,101578.66
2023-05-04T00:36:35.343Z,101580.34
2023-05-04T00:39:01.742Z,101580.59
2023-05-04T00:41:28.104Z,101577.00
2023-05-04T00:43:54.479Z,101579.66
2023-05-04T00:46:20.903Z,101581.22
2023-05-04T00:48:48.951Z,101572.53
2023-05-04T00:51:16.650Z,101576.25
2023-05-04T00:53:43.313Z,101571.38
2023-05-04T00:56:10.259Z,101570.97
2023-05-04T00:58:36.866Z,101574.00
2023-05-04T01:01:03.766Z,101561.41
2023-05-04T01:03:31.433Z,101557.28
2023-05-04T01:06:19.620Z,101558.63
2023-05-04T01:08:55.557Z,101557.31
2023-05-04T01:11:27.807Z,101555.81
2023-05-04T01:13:54.133Z,101552.50
2023-05-04T01:16:20.783Z,101552.72
2023-05-04T01:18:47.261Z,101548.94
2023-05-04T01:21:13.637Z,101548.63
2023-05-04T01:23:40.109Z,101542.41
2023-05-04T01:26:27.800Z,101544.69
2023-05-04T01:29:32.203Z,101543.44
2023-05-04T01:31:59.862Z,101561.66
2023-05-04T01:34:26.419Z,101541.03
2023-05-04T01:36:52.922Z,101548.63
2023-05-04T01:39:19.302Z,101558.16
2023-05-04T01:41:45.663Z,101552.25
2023-05-04T01:44:12.132Z,101553.75
2023-05-04T01:46:38.564Z,101548.78
2023-05-04T01:49:05.049Z,101549.69
2023-05-04T01:51:31.499Z,101555.00
2023-05-04T01:53:57.880Z,101546.19
2023-05-04T01:56:24.256Z,101554.66
2023-05-04T01:58:50.635Z,101553.16
2023-05-04T02:01:17.071Z,101551.63
2023-05-04T02:03:44.447Z,101547.28
2023-05-04T02:06:11.071Z,101549.53
2023-05-04T02:08:37.970Z,101539.84
2023-05-04T02:11:04.371Z,101539.69
2023-05-04T02:13:31.272Z,101540.72
2023-05-04T02:15:57.702Z,101537.50
2023-05-04T02:18:24.207Z,101536.75
2023-05-04T02:20:50.657Z,101538.44
2023-05-04T02:23:17.075Z,101537.97
2023-05-04T02:25:43.472Z,101534.38
2023-05-04T02:28:09.860Z,101535.44
2023-05-04T02:30:36.250Z,101535.00
2023-05-04T02:33:02.726Z,101537.41
2023-05-04T02:35:29.565Z,101520.13
2023-05-04T02:37:55.988Z,101526.66
2023-05-04T02:40:22.398Z,101523.03
2023-05-04T02:42:48.934Z,101525.91
2023-05-04T02:45:15.500Z,101525.13
2023-05-04T02:47:42.044Z,101524.38
2023-05-04T02:50:08.930Z,101516.81
2023-05-04T02:52:35.485Z,101521.50
2023-05-04T02:55:03.140Z,101518.63
2023-05-04T02:57:29.531Z,101521.66
2023-05-04T02:59:56.023Z,101524.06
2023-05-04T03:02:22.513Z,101524.38
2023-05-04T03:04:48.902Z,101526.94
2023-05-04T03:07:15.326Z,101522.53
2023-05-04T03:09:41.745Z,101530.28
2023-05-04T03:12:08.124Z,101522.69
2023-05-04T03:14:34.510Z,101518.72
2023-05-04T03:17:00.959Z,101518.28
2023-05-04T03:19:27.358Z,101516.34
2023-05-04T03:21:53.709Z,101515.44
2023-05-04T03:24:20.166Z,101511.16
2023-05-04T03:26:47.187Z,101510.06
2023-05-04T03:29:13.661Z,101511.06
2023-05-04T03:31:40.197Z,101509.19
2023-05-04T03:34:06.720Z,101507.88
2023-05-04T03:36:33.130Z,101500.13
2023-05-04T03:38:59.523Z,101500.28
2023-05-04T03:41:25.885Z,101494.50
2023-05-04T03:43:52.316Z,101495.00
2023-05-04T03:46:18.740Z,101488.91
2023-05-04T03:48:45.232Z,101492.41
2023-05-04T03:51:11.640Z,101493.91
2023-05-04T03:53:38.024Z,101492.84
2023-05-04T03:56:04.482Z,101489.50
2023-05-04T03:58:31.004Z,101489.69
2023-05-04T04:00:57.493Z,101488.16
2023-05-04T04:03:24.035Z,101488.91
2023-05-04T04:05:50.794Z,101487.38
2023-05-04T04:08:17.292Z,101480.88
2023-05-04T04:10:43.681Z,101488.47
2023-05-04T04:13:10.191Z,101483.31
2023-05-04T04:15:36.733Z,101483.19
2023-05-04T04:18:03.197Z,101481.34
2023-05-04T04:20:29.648Z,101485.28
2023-05-04T04:22:56.238Z,101480.72
2023-05-04T04:25:23.182Z,101484.69
2023-05-04T04:27:49.650Z,101487.69
2023-05-04T04:30:16.650Z,101489.69
2023-05-04T04:32:43.148Z,101480.41
2023-05-04T04:35:09.751Z,101486.81
2023-05-04T04:37:36.108Z,101485.44
2023-05-04T04:40:03.862Z,101489.38
2023-05-04T04:42:30.496Z,101482.09
2023-05-04T04:44:57.092Z,101493.16
2023-05-04T04:47:23.482Z,101491.47
2023-05-04T04:49:49.912Z,101492.56
2023-05-04T04:52:17.159Z,101498.59
2023-05-04T04:54:45.118Z,101493.03
2023-05-04T04:57:11.524Z,101491.97
2023-05-04T04:59:38.082Z,101495.31
2023-05-04T05:02:04.477Z,101496.19
2023-05-04T05:04:31.214Z,101490.44
2023-05-04T05:06:57.643Z,101489.38
2023-05-04T05:09:24.051Z,101489.84
2023-05-04T05:11:50.434Z,101486.78
2023-05-04T05:14:16.822Z,101484.34
2023-05-04T05:16:43.269Z,101475.69
2023-05-04T05:19:09.658Z,101476.50
2023-05-04T05:21:36.050Z,101470.53
2023-05-04T05:24:02.730Z,101475.28
2023-05-04T05:26:29.398Z,101472.13
2023-05-04T05:28:55.997Z,101479.84
2023-05-04T05:31:22.483Z,101472.25
2023-05-04T05:33:48.906Z,101473.00
2023-05-04T05:36:15.331Z,101473.44
2023-05-04T05:38:41.777Z,101479.66
2023-05-04T05:41:09.587Z,101483.44
2023-05-04T05:43:38.433Z,101478.94
2023-05-04T05:46:06.285Z,101474.88
2023-05-04T05:48:33.135Z,101477.13
2023-05-04T05:50:59.722Z,101465.81
2023-05-04T05:53:26.207Z,101467.41
2023-05-04T05:55:52.580Z,101468.47
2023-05-04T05:58:19.000Z,101470.75
2023-05-04T06:00:46.178Z,101466.16
2023-05-04T06:03:12.630Z,101461.03
2023-05-04T06:05:39.066Z,101460.78
2023-05-04T06:08:05.621Z,101459.25
2023-05-04T06:10:32.027Z,101462.81
2023-05-04T06:12:58.546Z,101459.53
2023-05-04T06:15:24.941Z,101447.34
2023-05-04T06:17:51.395Z,101442.06
2023-05-04T06:20:18.098Z,101449.28
2023-05-04T06:22:44.458Z,101442.56
2023-05-04T06:25:11.495Z,101441.53
2023-05-04T06:27:37.882Z,101443.75
2023-05-04T06:30:05.422Z,101435.75
2023-05-04T06:32:32.138Z,101433.03
2023-05-04T06:34:59.401Z,101431.13
2023-05-04T06:37:26.663Z,101428.44
2023-05-04T06:39:53.924Z,101431.56
2023-05-04T06:42:20.902Z,101431.97
2023-05-04T06:44:47.454Z,101421.13
2023-05-04T06:47:15.537Z,101421.38
2023-05-04T06:49:41.928Z,101421.06
2023-05-04T06:52:08.454Z,101419.53
2023-05-04T06:54:35.629Z,101419.38
2023-05-04T06:57:03.247Z,101413.56
2023-05-04T06:59:29.633Z,101408.81
2023-05-04T07:01:56.239Z,101413.34
2023-05-04T07:04:23.432Z,101409.75
2023-05-04T07:06:50.569Z,101408.28
2023-05-04T07:09:18.785Z,101405.56
2023-05-04T07:11:45.348Z,101401.28
2023-05-04T07:14:11.933Z,101398.16
2023-05-04T07:16:38.588Z,101391.88
2023-05-04T07:19:05.211Z,101394.59
2023-05-04T07:21:31.773Z,101385.09
2023-05-04T07:23:58.253Z,101391.75
2023-05-04T07:26:24.656Z,101384.00
2023-05-04T07:28:51.050Z,101393.88
2023-05-04T07:31:17.466Z,101385.94
2023-05-04T07:33:43.939Z,101381.25
2023-05-04T07:36:10.380Z,101379.47
2023-05-04T07:38:36.869Z,101380.34
2023-05-04T07:41:03.247Z,101373.81
2023-05-04T07:43:29.717Z,101377.56
2023-05-04T07:45:56.519Z,101377.53
2023-05-04T07:48:25.236Z,101373.59
2023-05-04T07:50:53.801Z,101376.44
2023-05-04T07:53:25.645Z,101374.41
2023-05-04T07:55:54.181Z,101368.53
2023-05-04T07:58:20.727Z,101376.47
2023-05-04T08:00:47.190Z,101373.25
2023-05-04T08:03:13.709Z,101367.38
2023-05-04T08:05:40.100Z,101363.97
2023-05-04T08:08:08.339Z,101366.66
2023-05-04T08:10:38.069Z,101362.31
2023-05-04T08:13:05.261Z,101358.78
2023-05-04T08:15:31.780Z,101348.16
2023-05-04T08:17:58.237Z,101357.03
2023-05-04T08:20:24.645Z,101347.34
2023-05-04T08:22:51.115Z,101348.38
2023-05-04T08:25:18.064Z,101344.41
2023-05-04T08:27:45.636Z,101343.72
2023-05-04T08:30:12.435Z,101337.41
2023-05-04T08:32:39.049Z,101335.78
2023-05-04T08:35:06.127Z,101338.97
2023-05-04T08:37:32.685Z,101330.53
2023-05-04T08:39:59.159Z,101327.22
2023-05-04T08:42:32.843Z,101324.81
2023-05-04T08:44:59.591Z,101316.59
2023-05-04T08:47:27.274Z,101322.88
2023-05-04T08:49:54.336Z,101318.94
2023-05-04T08:52:25.281Z,101315.63
2023-05-04T08:54:55.384Z,101315.22
2023-05-04T08:57:23.244Z,101314.56
2023-05-04T08:59:54.621Z,101305.28
2023-05-04T09:02:22.484Z,101303.91
2023-05-04T09:04:49.921Z,101307.69
2023-05-04T09:07:17.990Z,101300.13
2023-05-04T09:09:44.399Z,101298.56
2023-05-04T09:12:10.790Z,101301.34
2023-05-04T09:14:37.246Z,101294.53
2023-05-04T09:17:04.322Z,101291.97
2023-05-04T09:19:34.491Z,101288.75
2023-05-04T09:22:01.499Z,101285.53
2023-05-04T09:24:28.528Z,101286.69
2023-05-04T09:26:55.315Z,101282.78
2023-05-04T09:29:23.917Z,101283.56
2023-05-04T09:31:51.525Z,101280.91
2023-05-04T09:34:20.348Z,101280.97
2023-05-04T09:37:01.573Z,101279.94
2023-05-04T09:39:28.068Z,101277.38
2023-05-04T09:41:55.174Z,101276.19
2023-05-04T09:44:22.909Z,101271.34
2023-05-04T09:46:56.964Z,101268.13
2023-05-04T09:49:33.084Z,101256.47
2023-05-04T09:52:03.352Z,101257.75
2023-05-04T09:54:34.896Z,101256.09
2023-05-04T09:57:12.908Z,101239.53
2023-05-04T09:59:39.884Z,101239.66
2023-05-04T10:02:18.138Z,101235.25
2023-05-04T10:04:50.449Z,101229.91
2023-05-04T10:07:17.149Z,101221.69
2023-05-04T10:09:43.678Z,101214.88
2023-05-04T10:12:10.037Z,101213.88
2023-05-04T10:14:36.632Z,101211.69
2023-05-04T10:17:26.341Z,101212.09
2023-05-04T10:20:04.788Z,101210.16
2023-05-04T10:22:53.248Z,101201.13
2023-05-04T10:25:44.140Z,101199.22
2023-05-04T10:28:41.496Z,101183.22
2023-05-04T10:31:08.223Z,101185.88
2023-05-04T10:33:42.526Z,101178.97
2023-05-04T10:36:09.789Z,101177.41
2023-05-04T10:38:37.338Z,101173.19
2023-05-04T10:41:17.193Z,101172.03
2023-05-04T10:43:48.629Z,101164.41
2023-05-04T10:46:21.526Z,101163.66
2023-05-04T10:48:48.532Z,101144.47
2023-05-04T10:51:22.356Z,101144.72
2023-05-04T10:53:48.828Z,101139.44
2023-05-04T10:56:27.908Z,101138.97
2023-05-04T10:58:54.908Z,101137.56
2023-05-04T11:01:21.921Z,101135.06
2023-05-04T11:03:49.035Z,101129.34
2023-05-04T11:06:23.959Z,101128.56
2023-05-04T11:09:01.722Z,101120.28
2023-05-04T11:11:28.095Z,101099.97
2023-05-04T11:13:54.724Z,101107.28
2023-05-04T11:16:25.632Z,101102.66
2023-05-04T11:18:53.512Z,101103.25
2023-05-04T11:21:38.156Z,101102.25
2023-05-04T11:24:04.818Z,101098.88
2023-05-04T11:26:31.225Z,101096.25
2023-05-04T11:28:57.722Z,101103.06
2023-05-04T11:31:24.175Z,101086.44
2023-05-04T11:33:52.267Z,101082.38
2023-05-04T11:36:19.505Z,101080.50
2023-05-04T11:38:46.003Z,101076.31
2023-05-04T11:41:12.936Z,101078.63
2023-05-04T11:43:42.163Z,101078.84
2023-05-04T11:46:09.134Z,101074.44
2023-05-04T11:48:35.736Z,101066.25
2023-05-04T11:51:02.604Z,101052.78
2023-05-04T11:53:37.385Z,101052.38
2023-05-04T11:56:04.098Z,101054.97
2023-05-04T11:58:30.784Z,101049.63
2023-05-04T12:00:58.096Z,101050.69
2023-05-04T12:03:39.787Z,101040.53
2023-05-04T12:06:16.353Z,101029.50
2023-05-04T12:08:43.307Z,101038.88
2023-05-04T12:11:13.568Z,101025.59
2023-05-04T12:13:40.881Z,101025.47
2023-05-04T12:16:15.738Z,101027.97
2023-05-04T12:18:44.275Z,101017.81
2023-05-04T12:21:18.505Z,101020.84
2023-05-04T12:23:46.192Z,101014.53
2023-05-04T12:26:13.194Z,101004.56
2023-05-04T12:28:40.716Z,101003.84
2023-05-04T12:31:07.234Z,101010.72
2023-05-04T12:33:34.324Z,100997.44
2023-05-04T12:36:01.561Z,101004.47
2023-05-04T12:38:28.744Z,100989.13
2023-05-04T12:40:58.708Z,100986.44
2023-05-04T12:43:25.219Z,101001.56
2023-05-04T12:45:52.844Z,100999.88
2023-05-04T12:48:20.792Z,100996.78
2023-05-04T12:50:51.070Z,100992.94
2023-05-04T12:53:18.299Z,100987.91
2023-05-04T12:55:45.037Z,100984.94
2023-05-04T12:58:11.422Z,100984.44
2023-05-04T13:00:38.673Z,100970.53
2023-05-04T13:03:05.804Z,100985.91
2023-05-04T13:05:32.296Z,100975.34
2023-05-04T13:07:59.022Z,100965.00
2023-05-04T13:10:25.618Z,100957.31
2023-05-04T13:12:52.092Z,100955.56
2023-05-04T13:15:18.565Z,100950.59
2023-05-04T13:17:45.044Z,100944.63
2023-05-04T13:20:12.148Z,100944.09
2023-05-04T13:22:39.094Z,100925.28
2023-05-04T13:25:06.452Z,100929.84
2023-05-04T13:27:33.306Z,100917.44
2023-05-04T13:30:02.854Z,100910.34
2023-05-04T13:32:30.249Z,100916.59
2023-05-04T13:34:56.965Z,100889.25
2023-05-04T13:37:23.441Z,100903.94
2023-05-04T13:39:49.889Z,100915.03
2023-05-04T13:42:16.277Z,100896.16
2023-05-04T13:44:45.152Z,100897.66
2023-05-04T13:47:16.047Z,100889.91
2023-05-04T13:49:42.627Z,100884.59
2023-05-04T13:52:09.099Z,100873.81
2023-05-04T13:54:36.250Z,100871.16
2023-05-04T13:57:02.837Z,100864.97
2023-05-04T13:59:29.643Z,100856.16
2023-05-04T14:01:56.646Z,100847.59
2023-05-04T14:04:23.452Z,100863.16
2023-05-04T14:06:50.743Z,100861.19
2023-05-04T14:09:18.273Z,100848.06
2023-05-04T14:11:45.727Z,100844.44
2023-05-04T14:14:12.262Z,100842.69
2023-05-04T14:16:39.034Z,100831.09
2023-05-04T14:19:05.530Z,100829.34
2023-05-04T14:21:31.921Z,100824.50
2023-05-04T14:23:58.315Z,100824.41
2023-05-04T14:26:24.691Z,100816.38
2023-05-04T14:28:51.094Z,100817.94
2023-05-04T14:31:17.540Z,100821.53
2023-05-04T14:33:43.935Z,100822.34
2023-05-04T14:36:11.052Z,100822.34
2023-05-04T14:38:37.515Z,100815.28
2023-05-04T14:41:04.876Z,100814.19
2023-05-04T14:43:31.397Z,100800.56
2023-05-04T14:46:00.757Z,100817.94
2023-05-04T14:48:27.552Z,100809.88
2023-05-04T14:50:54.956Z,100809.06
2023-05-04T14:53:24.423Z,100811.47
2023-05-04T14:55:50.995Z,100803.22
2023-05-04T14:58:18.042Z,100805.25
2023-05-04T15:00:45.313Z,100803.53
2023-05-04T15:03:11.989Z,100797.34
2023-05-04T15:05:38.465Z,100794.00
2023-05-04T15:08:05.238Z,100796.66
2023-05-04T15:10:31.614Z,100781.53
2023-05-04T15:12:59.689Z,100773.53
2023-05-04T15:15:26.202Z,100773.56
2023-05-04T15:17:52.681Z,100761.88
2023-05-04T15:20:19.088Z,100760.88
2023-05-04T15:22:53.723Z,100749.34
2023-05-04T15:25:23.674Z,100749.56
2023-05-04T15:27:50.081Z,100752.22
2023-05-04T15:30:16.680Z,100754.81
2023-05-04T15:32:43.077Z,100763.84
2023-05-04T15:35:09.610Z,100755.88
2023-05-04T15:37:36.244Z,100755.56
2023-05-04T15:40:04.291Z,100745.88
2023-05-04T15:42:30.981Z,100752.22
2023-05-04T15:44:57.369Z,100734.88
2023-05-04T15:47:23.780Z,100736.66
2023-05-04T15:49:50.170Z,100728.50
2023-05-04T15:52:16.612Z,100736.19
2023-05-04T15:54:43.393Z,100738.06
2023-05-04T15:57:09.866Z,100724.75
2023-05-04T15:59:36.224Z,100739.81
2023-05-04T16:02:05.653Z,100730.03
2023-05-04T16:04:32.110Z,100724.72
2023-05-04T16:06:58.493Z,100725.59
2023-05-04T16:09:26.913Z,100720.28
2023-05-04T16:11:53.314Z,100722.09
2023-05-04T16:14:19.750Z,100719.94
2023-05-04T16:16:46.151Z,100717.53
2023-05-04T16:19:12.668Z,100714.91
2023-05-04T16:21:39.031Z,100714.59
2023-05-04T16:24:07.491Z,100711.75
2023-05-04T16:26:33.861Z,100711.00
2023-05-04T16:29:00.521Z,100705.03
2023-05-04T16:31:27.024Z,100705.81
2023-05-04T16:33:53.470Z,100703.91
2023-05-04T16:36:19.849Z,100712.38
2023-05-04T16:38:47.868Z,100712.59
2023-05-04T16:41:14.299Z,100707.19
2023-05-04T16:43:40.692Z,100706.13
2023-05-04T16:46:07.099Z,100706.41
2023-05-04T16:48:33.550Z,100704.69
2023-05-04T16:50:59.910Z,100714.94
2023-05-04T16:53:26.358Z,100704.44
2023-05-04T16:55:53.026Z,100708.00
2023-05-04T16:58:19.421Z,100707.84
2023-05-04T17:00:45.900Z,100699.09
2023-05-04T17:03:12.408Z,100699.09
2023-05-04T17:05:38.899Z,100699.53
2023-05-04T17:08:05.549Z,100701.78
2023-05-04T17:10:31.931Z,100703.09
2023-05-04T17:12:59.701Z,100710.53
2023-05-04T17:15:27.293Z,100702.38
2023-05-04T17:17:55.543Z,100704.84
2023-05-04T17:20:23.827Z,100695.00
2023-05-04T17:22:51.660Z,100701.09
2023-05-04T17:25:18.168Z,100708.16
2023-05-04T17:27:44.711Z,100706.88
2023-05-04T17:30:12.585Z,100691.34
2023-05-04T17:32:39.003Z,100698.06
2023-05-04T17:35:20.329Z,100695.28
2023-05-04T17:37:51.375Z,100695.63
2023-05-04T17:40:17.774Z,100688.56
2023-05-04T17:42:44.208Z,100701.59
2023-05-04T17:45:10.834Z,100698.19
2023-05-04T17:47:37.325Z,100711.72
2023-05-04T17:50:04.228Z,100713.25
2023-05-04T17:52:30.681Z,100716.97
2023-05-04T17:54:57.058Z,100711.38
2023-05-04T17:57:23.425Z,100716.25
2023-05-04T17:59:49.875Z,100718.31
2023-05-04T18:02:16.502Z,100722.38
2023-05-04T18:04:43.601Z,100714.97
2023-05-04T18:07:09.986Z,100728.31
2023-05-04T18:09:36.397Z,100728.47
2023-05-04T18:12:03.240Z,100728.25
2023-05-04T18:14:29.636Z,100729.56
2023-05-04T18:16:56.250Z,100729.66
2023-05-04T18:19:27.652Z,100725.88
2023-05-04T18:21:54.162Z,100725.38
2023-05-04T18:24:20.646Z,100722.81
2023-05-04T18:26:48.354Z,100720.25
2023-05-04T18:29:18.883Z,100721.22
2023-05-04T18:31:46.087Z,100725.63
2023-05-04T18:34:12.537Z,100726.94
2023-05-04T18:36:38.900Z,100729.88
2023-05-04T18:39:05.398Z,100745.88
2023-05-04T18:41:31.864Z,100746.97
2023-05-04T18:43:58.314Z,100750.72
2023-05-04T18:46:25.117Z,100758.09
2023-05-04T18:48:51.733Z,100753.53
2023-05-04T18:51:18.107Z,100755.34
2023-05-04T18:53:44.676Z,100762.06
2023-05-04T18:56:11.147Z,100767.91
2023-05-04T18:58:38.764Z,100762.97
2023-05-04T19:01:05.934Z,100768.09
2023-05-04T19:03:32.789Z,100765.38
2023-05-04T19:05:59.395Z,100768.66
2023-05-04T19:08:25.858Z,100770.19
2023-05-04T19:10:52.306Z,100762.63
2023-05-04T19:13:20.636Z,100766.25
2023-05-04T19:15:47.000Z,100767.59
2023-05-04T19:18:13.617Z,100771.78
2023-05-04T19:20:40.050Z,100764.78
2023-05-04T19:23:06.468Z,100767.25
2023-05-04T19:25:35.232Z,100766.44
2023-05-04T19:28:08.754Z,100767.91
2023-05-04T19:30:39.435Z,100766.50
2023-05-04T19:33:08.314Z,100759.97
2023-05-04T19:35:35.136Z,100765.41
2023-05-04T19:38:01.632Z,100766.28
2023-05-04T19:40:28.203Z,100772.53
2023-05-04T19:42:54.582Z,100768.44
2023-05-04T19:45:20.973Z,100769.88
2023-05-04T19:47:48.375Z,100776.00
2023-05-04T19:50:16.368Z,100774.63
2023-05-04T19:52:42.799Z,100773.31
2023-05-04T19:55:09.437Z,100778.97
2023-05-04T19:57:36.102Z,100782.16
2023-05-04T20:00:03.294Z,100769.38
2023-05-04T20:02:29.897Z,100776.03
2023-05-04T20:04:56.409Z,100773.69
2023-05-04T20:07:22.868Z,100771.44
2023-05-04T20:09:49.251Z,100776.69
2023-05-04T20:12:16.220Z,100767.16
2023-05-04T20:14:43.312Z,100771.34
2023-05-04T20:17:09.908Z,100773.69
2023-05-04T20:19:38.302Z,100766.25
2023-05-04T20:22:04.731Z,100770.19
2023-05-04T20:24:31.132Z,100768.38
2023-05-04T20:26:57.511Z,100768.56
2023-05-04T20:29:24.215Z,100772.81
2023-05-04T20:31:50.786Z,100773.56
2023-05-04T20:34:19.030Z,100762.88
2023-05-04T20:36:46.818Z,100763.72
2023-05-04T20:39:13.499Z,100765.50
2023-05-04T20:41:40.573Z,100767.41
2023-05-04T20:44:07.038Z,100767.41
2023-05-04T20:46:33.645Z,100760.13
2023-05-04T20:49:02.679Z,100761.03
2023-05-04T20:51:29.339Z,100755.94
2023-05-04T20:53:55.748Z,100758.22
2023-05-04T20:56:22.487Z,100754.59
2023-05-04T20:58:48.912Z,100752.94
2023-05-04T21:01:15.371Z,100746.94
2023-05-04T21:03:41.840Z,100747.03
2023-05-04T21:06:08.333Z,100750.59
2023-05-04T21:08:34.741Z,100747.75
2023-05-04T21:11:01.140Z,100744.78
2023-05-04T21:13:27.522Z,100748.84
2023-05-04T21:15:53.999Z,100746.53
2023-05-04T21:18:20.425Z,100742.31
2023-05-04T21:20:47.139Z,100739.16
2023-05-04T21:23:13.620Z,100739.44
2023-05-04T21:25:40.038Z,100734.59
2023-05-04T21:28:06.520Z,100738.81
2023-05-04T21:30:32.912Z,100736.41
2023-05-04T21:33:00.267Z,100734.84
2023-05-04T21:35:30.780Z,100735.41
2023-05-04T21:37:58.834Z,100734.00
2023-05-04T21:40:28.577Z,100728.06
2023-05-04T21:42:54.945Z,100734.25
2023-05-04T21:45:21.431Z,100726.16
2023-05-04T21:47:47.855Z,100729.22
2023-05-04T21:50:14.308Z,100727.22
2023-05-04T21:52:40.913Z,100729.97
2023-05-04T21:55:07.577Z,100730.09
2023-05-04T21:57:33.952Z,100718.91
2023-05-04T22:00:00.329Z,100719.00
2023-05-04T22:02:26.737Z,100713.63
2023-05-04T22:04:53.141Z,100714.16
2023-05-04T22:07:19.523Z,100714.66
2023-05-04T22:09:45.932Z,100712.28
2023-05-04T22:12:12.836Z,100723.47
2023-05-04T22:14:41.635Z,100714.47
2023-05-04T22:17:08.825Z,100720.38
2023-05-04T22:19:35.268Z,100720.69
2023-05-04T22:22:01.668Z,100715.91
2023-05-04T22:24:28.105Z,100716.75
2023-05-04T22:26:54.519Z,100721.66
2023-05-04T22:29:20.919Z,100720.66
2023-05-04T22:31:48.335Z,100724.97
2023-05-04T22:34:14.730Z,100719.00
2023-05-04T22:36:41.302Z,100720.41
2023-05-04T22:39:07.969Z,100724.53
2023-05-04T22:41:34.331Z,100716.84
2023-05-04T22:44:01.074Z,100712.00
2023-05-04T22:46:27.487Z,100710.69
2023-05-04T22:48:53.869Z,100715.91
2023-05-04T22:51:20.245Z,100714.81
2023-05-04T22:53:46.818Z,100709.59
2023-05-04T22:56:13.262Z,100717.25
2023-05-04T22:58:39.646Z,100708.66
2023-05-04T23:01:10.378Z,100713.00
2023-05-04T23:03:37.488Z,100707.75
2023-05-04T23:06:04.955Z,100713.09
2023-05-04T23:08:31.397Z,100709.97
2023-05-04T23:10:57.770Z,100704.41
2023-05-04T23:13:24.431Z,100707.00
2023-05-04T23:15:50.850Z,100710.63
2023-05-04T23:18:17.549Z,100703.59
2023-05-04T23:20:44.057Z,100705.19
2023-05-04T23:23:10.612Z,100707.59
2023-05-04T23:25:36.984Z,100711.59
2023-05-04T23:28:03.623Z,100709.34
2023-05-04T23:30:30.392Z,100711.59
2023-05-04T23:32:57.659Z,100702.97
2023-05-04T23:35:24.091Z,100699.19
2023-05-04T23:37:50.580Z,100703.28
2023-05-04T23:40:16.986Z,100697.59
2023-05-04T23:42:43.370Z,100699.38
2023-05-04T23:45:10.206Z,100703.69
2023-05-04T23:47:36.637Z,100704.50
2023-05-04T23:50:03.059Z,100696.00
2023-05-04T23:52:29.790Z,100695.13
2023-05-04T23:54:56.197Z,100685.34
2023-05-04T23:57:22.677Z,100692.53
2023-05-04T23:59:49.101Z,100689.19
